sensor_id;sensor_type;location;lat;lon;timestamp;P1;durP1;ratioP1;P2;durP2;ratioP2
27612;SDS011;15036;48.094;-1.690;2023-05-10T00:02:23;13.32;;;2.45;;
27612;SDS011;15036;48.094;-1.690;2023-05-10T00:04:50;12.57;;;2.58;;
27612;SDS011;15036;48.094;-1.690;2023-05-10T00:07:16;18.17;;;3.35;;
27612;SDS011;15036;48.094;-1.690;2023-05-10T00:09:42;19.30;;;3.38;;
27612;SDS011;15036;48.094;-1.690;2023-05-10T00:12:08;18.63;;;3.10;;
27612;SDS011;15036;48.094;-1.690;2023-05-10T00:14:33;13.88;;;2.92;;
27612;SDS011;15036;48.094;-1.690;2023-05-10T00:17:00;13.35;;;2.83;;
27612;SDS011;15036;48.094;-1.690;2023-05-10T00:19:26;14.20;;;3.42;;
27612;SDS011;15036;48.094;-1.690;2023-05-10T00:21:51;19.73;;;3.63;;
27612;SDS011;15036;48.094;-1.690;2023-05-10T00:24:16;17.33;;;3.38;;
27612;SDS011;15036;48.094;-1.690;2023-05-10T00:26:42;15.68;;;3.42;;
27612;SDS011;15036;48.094;-1.690;2023-05-10T00:29:07;12.60;;;2.92;;
27612;SDS011;15036;48.094;-1.690;2023-05-10T00:31:33;13.07;;;2.80;;
27612;SDS011;15036;48.094;-1.690;2023-05-10T00:33:58;14.80;;;3.03;;
27612;SDS011;15036;48.094;-1.690;2023-05-10T00:36:23;13.30;;;2.58;;
27612;SDS011;15036;48.094;-1.690;2023-05-10T00:38:49;15.18;;;3.15;;
27612;SDS011;15036;48.094;-1.690;2023-05-10T00:41:14;12.98;;;3.00;;
27612;SDS011;15036;48.094;-1.690;2023-05-10T00:43:40;15.32;;;3.03;;
27612;SDS011;15036;48.094;-1.690;2023-05-10T00:46:06;20.83;;;3.47;;
27612;SDS011;15036;48.094;-1.690;2023-05-10T00:48:31;16.23;;;3.60;;
27612;SDS011;15036;48.094;-1.690;2023-05-10T00:50:57;11.93;;;3.30;;
27612;SDS011;15036;48.094;-1.690;2023-05-10T00:53:22;21.80;;;3.60;;
27612;SDS011;15036;48.094;-1.690;2023-05-10T00:55:49;20.23;;;3.58;;
27612;SDS011;15036;48.094;-1.690;2023-05-10T00:58:15;18.48;;;3.40;;
27612;SDS011;15036;48.094;-1.690;2023-05-10T01:00:41;21.02;;;3.58;;
27612;SDS011;15036;48.094;-1.690;2023-05-10T01:03:09;22.60;;;3.20;;
27612;SDS011;15036;48.094;-1.690;2023-05-10T01:05:35;22.50;;;3.72;;
27612;SDS011;15036;48.094;-1.690;2023-05-10T01:08:00;16.92;;;3.22;;
27612;SDS011;15036;48.094;-1.690;2023-05-10T01:10:26;18.67;;;3.30;;
27612;SDS011;15036;48.094;-1.690;2023-05-10T01:12:51;20.58;;;3.35;;
27612;SDS011;15036;48.094;-1.690;2023-05-10T01:15:17;18.92;;;3.75;;
27612;SDS011;15036;48.094;-1.690;2023-05-10T01:17:43;20.73;;;3.72;;
27612;SDS011;15036;48.094;-1.690;2023-05-10T01:20:10;17.05;;;3.72;;
27612;SDS011;15036;48.094;-1.690;2023-05-10T01:31:03;18.73;;;3.35;;
27612;SDS011;15036;48.094;-1.690;2023-05-10T01:33:48;19.30;;;3.40;;
27612;SDS011;15036;48.094;-1.690;2023-05-10T01:44:34;17.83;;;3.60;;
27612;SDS011;15036;48.094;-1.690;2023-05-10T01:47:15;17.90;;;3.88;;
27612;SDS011;15036;48.094;-1.690;2023-05-10T01:49:49;19.23;;;3.87;;
27612;SDS011;15036;48.094;-1.690;2023-05-10T01:52:18;19.23;;;3.35;;
27612;SDS011;15036;48.094;-1.690;2023-05-10T01:55:07;23.52;;;4.80;;
27612;SDS011;15036;48.094;-1.690;2023-05-10T01:57:33;20.95;;;3.92;;
27612;SDS011;15036;48.094;-1.690;2023-05-10T02:00:01;25.00;;;4.55;;
27612;SDS011;15036;48.094;-1.690;2023-05-10T02:02:33;19.48;;;3.45;;
27612;SDS011;15036;48.094;-1.690;2023-05-10T02:05:03;18.77;;;3.72;;
27612;SDS011;15036;48.094;-1.690;2023-05-10T02:07:30;28.00;;;4.40;;
27612;SDS011;15036;48.094;-1.690;2023-05-10T02:09:58;20.23;;;4.13;;
27612;SDS011;15036;48.094;-1.690;2023-05-10T02:12:25;23.45;;;4.15;;
27612;SDS011;15036;48.094;-1.690;2023-05-10T02:14:52;16.52;;;4.22;;
27612;SDS011;15036;48.094;-1.690;2023-05-10T02:17:19;21.80;;;3.75;;
27612;SDS011;15036;48.094;-1.690;2023-05-10T02:19:45;21.95;;;3.58;;
27612;SDS011;15036;48.094;-1.690;2023-05-10T02:22:12;20.00;;;4.03;;
27612;SDS011;15036;48.094;-1.690;2023-05-10T02:24:40;21.58;;;3.72;;
27612;SDS011;15036;48.094;-1.690;2023-05-10T02:27:06;15.43;;;3.30;;
27612;SDS011;15036;48.094;-1.690;2023-05-10T02:29:34;18.02;;;3.85;;
27612;SDS011;15036;48.094;-1.690;2023-05-10T02:32:01;20.67;;;3.72;;
27612;SDS011;15036;48.094;-1.690;2023-05-10T02:34:28;24.63;;;4.25;;
27612;SDS011;15036;48.094;-1.690;2023-05-10T02:36:55;17.60;;;3.90;;
27612;SDS011;15036;48.094;-1.690;2023-05-10T02:39:21;24.38;;;4.55;;
27612;SDS011;15036;48.094;-1.690;2023-05-10T02:41:48;17.95;;;4.07;;
27612;SDS011;15036;48.094;-1.690;2023-05-10T02:44:15;22.90;;;4.20;;
27612;SDS011;15036;48.094;-1.690;2023-05-10T02:46:43;24.33;;;4.30;;
27612;SDS011;15036;48.094;-1.690;2023-05-10T02:49:09;17.73;;;4.20;;
27612;SDS011;15036;48.094;-1.690;2023-05-10T02:51:35;23.60;;;4.57;;
27612;SDS011;15036;48.094;-1.690;2023-05-10T02:54:12;20.75;;;3.80;;
27612;SDS011;15036;48.094;-1.690;2023-05-10T02:56:42;25.35;;;5.05;;
27612;SDS011;15036;48.094;-1.690;2023-05-10T02:59:12;24.80;;;4.50;;
27612;SDS011;15036;48.094;-1.690;2023-05-10T03:01:37;23.05;;;4.35;;
27612;SDS011;15036;48.094;-1.690;2023-05-10T03:04:03;21.70;;;4.22;;
27612;SDS011;15036;48.094;-1.690;2023-05-10T03:06:28;25.30;;;4.30;;
27612;SDS011;15036;48.094;-1.690;2023-05-10T03:08:54;21.77;;;4.40;;
27612;SDS011;15036;48.094;-1.690;2023-05-10T03:16:50;23.48;;;3.78;;
27612;SDS011;15036;48.094;-1.690;2023-05-10T03:21:55;26.27;;;4.07;;
27612;SDS011;15036;48.094;-1.690;2023-05-10T03:24:24;21.83;;;4.05;;
27612;SDS011;15036;48.094;-1.690;2023-05-10T03:26:53;21.00;;;4.22;;
27612;SDS011;15036;48.094;-1.690;2023-05-10T03:29:21;25.27;;;4.60;;
27612;SDS011;15036;48.094;-1.690;2023-05-10T03:31:48;19.50;;;4.38;;
27612;SDS011;15036;48.094;-1.690;2023-05-10T03:34:13;20.27;;;4.32;;
27612;SDS011;15036;48.094;-1.690;2023-05-10T03:36:38;23.00;;;4.55;;
27612;SDS011;15036;48.094;-1.690;2023-05-10T03:39:04;21.17;;;4.35;;
27612;SDS011;15036;48.094;-1.690;2023-05-10T03:41:29;20.45;;;4.30;;
27612;SDS011;15036;48.094;-1.690;2023-05-10T03:43:55;24.08;;;4.05;;
27612;SDS011;15036;48.094;-1.690;2023-05-10T03:46:20;28.10;;;4.75;;
27612;SDS011;15036;48.094;-1.690;2023-05-10T03:48:45;19.10;;;4.25;;
27612;SDS011;15036;48.094;-1.690;2023-05-10T03:51:11;20.13;;;4.65;;
27612;SDS011;15036;48.094;-1.690;2023-05-10T03:53:36;25.58;;;4.50;;
27612;SDS011;15036;48.094;-1.690;2023-05-10T03:56:03;19.25;;;4.57;;
27612;SDS011;15036;48.094;-1.690;2023-05-10T03:58:28;21.25;;;4.18;;
27612;SDS011;15036;48.094;-1.690;2023-05-10T04:00:54;23.15;;;4.18;;
27612;SDS011;15036;48.094;-1.690;2023-05-10T04:03:20;22.02;;;5.00;;
27612;SDS011;15036;48.094;-1.690;2023-05-10T04:05:45;20.23;;;4.00;;
27612;SDS011;15036;48.094;-1.690;2023-05-10T04:08:11;23.92;;;4.82;;
27612;SDS011;15036;48.094;-1.690;2023-05-10T04:10:36;26.00;;;4.35;;
27612;SDS011;15036;48.094;-1.690;2023-05-10T04:13:01;24.27;;;4.93;;
27612;SDS011;15036;48.094;-1.690;2023-05-10T04:15:27;24.45;;;4.47;;
27612;SDS011;15036;48.094;-1.690;2023-05-10T04:17:52;17.13;;;3.63;;
27612;SDS011;15036;48.094;-1.690;2023-05-10T04:20:18;24.30;;;3.97;;
27612;SDS011;15036;48.094;-1.690;2023-05-10T04:22:43;20.92;;;4.15;;
27612;SDS011;15036;48.094;-1.690;2023-05-10T04:25:09;18.63;;;3.65;;
27612;SDS011;15036;48.094;-1.690;2023-05-10T04:27:34;24.05;;;4.28;;
27612;SDS011;15036;48.094;-1.690;2023-05-10T04:30:00;22.08;;;4.43;;
27612;SDS011;15036;48.094;-1.690;2023-05-10T04:32:25;26.58;;;4.47;;
27612;SDS011;15036;48.094;-1.690;2023-05-10T04:34:51;21.23;;;4.00;;
27612;SDS011;15036;48.094;-1.690;2023-05-10T04:37:17;23.85;;;3.90;;
27612;SDS011;15036;48.094;-1.690;2023-05-10T04:39:42;18.85;;;3.78;;
27612;SDS011;15036;48.094;-1.690;2023-05-10T04:42:08;20.00;;;4.05;;
27612;SDS011;15036;48.094;-1.690;2023-05-10T04:44:34;26.05;;;4.25;;
27612;SDS011;15036;48.094;-1.690;2023-05-10T04:47:00;20.05;;;4.22;;
27612;SDS011;15036;48.094;-1.690;2023-05-10T04:49:27;20.10;;;3.90;;
27612;SDS011;15036;48.094;-1.690;2023-05-10T04:51:52;23.25;;;3.83;;
27612;SDS011;15036;48.094;-1.690;2023-05-10T04:54:18;21.58;;;3.92;;
27612;SDS011;15036;48.094;-1.690;2023-05-10T04:56:43;23.48;;;4.55;;
27612;SDS011;15036;48.094;-1.690;2023-05-10T04:59:08;21.40;;;4.57;;
27612;SDS011;15036;48.094;-1.690;2023-05-10T05:01:34;21.70;;;4.57;;
27612;SDS011;15036;48.094;-1.690;2023-05-10T05:03:59;22.55;;;5.30;;
27612;SDS011;15036;48.094;-1.690;2023-05-10T05:06:25;18.88;;;4.32;;
27612;SDS011;15036;48.094;-1.690;2023-05-10T05:08:52;23.00;;;4.93;;
27612;SDS011;15036;48.094;-1.690;2023-05-10T05:11:17;21.15;;;4.45;;
27612;SDS011;15036;48.094;-1.690;2023-05-10T05:13:43;20.85;;;4.30;;
27612;SDS011;15036;48.094;-1.690;2023-05-10T05:16:08;20.45;;;4.78;;
27612;SDS011;15036;48.094;-1.690;2023-05-10T05:18:35;25.58;;;4.43;;
27612;SDS011;15036;48.094;-1.690;2023-05-10T05:21:00;21.88;;;4.43;;
27612;SDS011;15036;48.094;-1.690;2023-05-10T05:23:26;20.27;;;4.45;;
27612;SDS011;15036;48.094;-1.690;2023-05-10T05:25:53;19.50;;;4.05;;
27612;SDS011;15036;48.094;-1.690;2023-05-10T05:28:19;22.23;;;4.50;;
27612;SDS011;15036;48.094;-1.690;2023-05-10T05:30:45;20.15;;;4.35;;
27612;SDS011;15036;48.094;-1.690;2023-05-10T05:33:11;16.33;;;4.05;;
27612;SDS011;15036;48.094;-1.690;2023-05-10T05:35:36;23.27;;;4.75;;
27612;SDS011;15036;48.094;-1.690;2023-05-10T05:38:01;20.02;;;4.65;;
27612;SDS011;15036;48.094;-1.690;2023-05-10T05:40:27;19.85;;;3.97;;
27612;SDS011;15036;48.094;-1.690;2023-05-10T05:42:52;19.45;;;4.22;;
27612;SDS011;15036;48.094;-1.690;2023-05-10T05:45:18;21.13;;;4.63;;
27612;SDS011;15036;48.094;-1.690;2023-05-10T05:47:43;22.13;;;4.00;;
27612;SDS011;15036;48.094;-1.690;2023-05-10T05:50:08;22.95;;;4.85;;
27612;SDS011;15036;48.094;-1.690;2023-05-10T05:52:34;19.70;;;4.13;;
27612;SDS011;15036;48.094;-1.690;2023-05-10T05:55:00;22.02;;;4.35;;
27612;SDS011;15036;48.094;-1.690;2023-05-10T05:57:26;27.77;;;4.93;;
27612;SDS011;15036;48.094;-1.690;2023-05-10T05:59:51;19.13;;;3.90;;
27612;SDS011;15036;48.094;-1.690;2023-05-10T06:02:17;20.67;;;4.60;;
27612;SDS011;15036;48.094;-1.690;2023-05-10T06:04:42;23.20;;;4.20;;
27612;SDS011;15036;48.094;-1.690;2023-05-10T06:07:07;20.08;;;4.20;;
27612;SDS011;15036;48.094;-1.690;2023-05-10T06:09:34;27.67;;;4.82;;
27612;SDS011;15036;48.094;-1.690;2023-05-10T06:12:00;24.60;;;4.57;;
27612;SDS011;15036;48.094;-1.690;2023-05-10T06:14:25;21.75;;;4.57;;
27612;SDS011;15036;48.094;-1.690;2023-05-10T06:16:50;23.05;;;4.18;;
27612;SDS011;15036;48.094;-1.690;2023-05-10T06:19:16;20.65;;;4.35;;
27612;SDS011;15036;48.094;-1.690;2023-05-10T06:21:42;27.13;;;5.07;;
27612;SDS011;15036;48.094;-1.690;2023-05-10T06:24:07;20.13;;;4.18;;
27612;SDS011;15036;48.094;-1.690;2023-05-10T06:26:33;22.55;;;4.28;;
27612;SDS011;15036;48.094;-1.690;2023-05-10T06:28:58;18.45;;;4.40;;
27612;SDS011;15036;48.094;-1.690;2023-05-10T06:31:24;18.42;;;4.15;;
27612;SDS011;15036;48.094;-1.690;2023-05-10T06:33:49;25.67;;;3.97;;
27612;SDS011;15036;48.094;-1.690;2023-05-10T06:36:14;24.35;;;4.65;;
27612;SDS011;15036;48.094;-1.690;2023-05-10T06:38:40;20.58;;;4.07;;
27612;SDS011;15036;48.094;-1.690;2023-05-10T06:41:07;19.55;;;4.38;;
27612;SDS011;15036;48.094;-1.690;2023-05-10T06:43:33;20.23;;;4.22;;
27612;SDS011;15036;48.094;-1.690;2023-05-10T06:45:58;19.00;;;4.07;;
27612;SDS011;15036;48.094;-1.690;2023-05-10T06:48:23;20.42;;;4.28;;
27612;SDS011;15036;48.094;-1.690;2023-05-10T06:50:49;22.42;;;4.38;;
27612;SDS011;15036;48.094;-1.690;2023-05-10T06:53:14;20.08;;;4.07;;
27612;SDS011;15036;48.094;-1.690;2023-05-10T06:55:40;19.73;;;4.47;;
27612;SDS011;15036;48.094;-1.690;2023-05-10T06:58:05;23.40;;;4.97;;
27612;SDS011;15036;48.094;-1.690;2023-05-10T07:00:31;19.80;;;4.47;;
27612;SDS011;15036;48.094;-1.690;2023-05-10T07:02:56;17.67;;;4.32;;
27612;SDS011;15036;48.094;-1.690;2023-05-10T07:05:21;21.30;;;4.22;;
27612;SDS011;15036;48.094;-1.690;2023-05-10T07:07:47;22.77;;;4.57;;
27612;SDS011;15036;48.094;-1.690;2023-05-10T07:10:12;19.15;;;4.05;;
27612;SDS011;15036;48.094;-1.690;2023-05-10T07:12:38;17.13;;;3.85;;
27612;SDS011;15036;48.094;-1.690;2023-05-10T07:15:04;23.30;;;4.10;;
27612;SDS011;15036;48.094;-1.690;2023-05-10T07:17:29;19.92;;;4.22;;
27612;SDS011;15036;48.094;-1.690;2023-05-10T07:19:55;21.77;;;4.40;;
27612;SDS011;15036;48.094;-1.690;2023-05-10T07:22:20;14.98;;;3.35;;
27612;SDS011;15036;48.094;-1.690;2023-05-10T07:24:46;17.17;;;3.83;;
27612;SDS011;15036;48.094;-1.690;2023-05-10T07:27:11;22.23;;;4.50;;
27612;SDS011;15036;48.094;-1.690;2023-05-10T07:29:37;19.88;;;3.90;;
27612;SDS011;15036;48.094;-1.690;2023-05-10T07:32:03;21.02;;;4.47;;
27612;SDS011;15036;48.094;-1.690;2023-05-10T07:34:28;18.67;;;3.78;;
27612;SDS011;15036;48.094;-1.690;2023-05-10T07:36:55;18.77;;;3.85;;
27612;SDS011;15036;48.094;-1.690;2023-05-10T07:39:21;15.60;;;3.47;;
27612;SDS011;15036;48.094;-1.690;2023-05-10T07:41:46;18.00;;;4.00;;
27612;SDS011;15036;48.094;-1.690;2023-05-10T07:44:12;19.35;;;4.07;;
27612;SDS011;15036;48.094;-1.690;2023-05-10T07:46:37;14.68;;;3.78;;
27612;SDS011;15036;48.094;-1.690;2023-05-10T07:49:03;19.63;;;4.05;;
27612;SDS011;15036;48.094;-1.690;2023-05-10T07:51:29;14.20;;;3.80;;
27612;SDS011;15036;48.094;-1.690;2023-05-10T07:53:54;17.92;;;3.55;;
27612;SDS011;15036;48.094;-1.690;2023-05-10T07:58:47;18.17;;;4.07;;
27612;SDS011;15036;48.094;-1.690;2023-05-10T08:01:13;22.15;;;4.50;;
27612;SDS011;15036;48.094;-1.690;2023-05-10T08:03:38;19.75;;;4.00;;
27612;SDS011;15036;48.094;-1.690;2023-05-10T08:06:03;20.17;;;3.97;;
27612;SDS011;15036;48.094;-1.690;2023-05-10T08:08:29;15.70;;;3.78;;
27612;SDS011;15036;48.094;-1.690;2023-05-10T08:10:54;16.77;;;3.58;;
27612;SDS011;15036;48.094;-1.690;2023-05-10T08:13:21;17.95;;;3.55;;
27612;SDS011;15036;48.094;-1.690;2023-05-10T08:15:46;17.17;;;3.60;;
27612;SDS011;15036;48.094;-1.690;2023-05-10T08:18:12;13.63;;;3.67;;
27612;SDS011;15036;48.094;-1.690;2023-05-10T08:20:37;18.73;;;3.83;;
27612;SDS011;15036;48.094;-1.690;2023-05-10T08:23:03;15.52;;;3.40;;
27612;SDS011;15036;48.094;-1.690;2023-05-10T08:25:28;16.55;;;3.60;;
27612;SDS011;15036;48.094;-1.690;2023-05-10T08:27:53;13.20;;;3.03;;
27612;SDS011;15036;48.094;-1.690;2023-05-10T08:30:19;22.05;;;3.80;;
27612;SDS011;15036;48.094;-1.690;2023-05-10T08:32:44;15.60;;;3.40;;
27612;SDS011;15036;48.094;-1.690;2023-05-10T08:35:09;16.52;;;3.70;;
27612;SDS011;15036;48.094;-1.690;2023-05-10T08:37:35;17.88;;;4.10;;
27612;SDS011;15036;48.094;-1.690;2023-05-10T08:40:00;11.82;;;3.00;;
27612;SDS011;15036;48.094;-1.690;2023-05-10T08:42:26;13.05;;;3.05;;
27612;SDS011;15036;48.094;-1.690;2023-05-10T08:44:55;13.80;;;3.13;;
27612;SDS011;15036;48.094;-1.690;2023-05-10T08:47:22;13.15;;;2.97;;
27612;SDS011;15036;48.094;-1.690;2023-05-10T08:49:48;12.35;;;3.08;;
27612;SDS011;15036;48.094;-1.690;2023-05-10T08:52:16;14.77;;;3.20;;
27612;SDS011;15036;48.094;-1.690;2023-05-10T08:54:42;13.90;;;3.35;;
27612;SDS011;15036;48.094;-1.690;2023-05-10T08:57:08;13.45;;;3.10;;
27612;SDS011;15036;48.094;-1.690;2023-05-10T08:59:34;10.82;;;2.83;;
27612;SDS011;15036;48.094;-1.690;2023-05-10T09:02:00;13.20;;;3.25;;
27612;SDS011;15036;48.094;-1.690;2023-05-10T09:04:26;10.50;;;2.75;;
27612;SDS011;15036;48.094;-1.690;2023-05-10T09:06:54;14.93;;;3.08;;
27612;SDS011;15036;48.094;-1.690;2023-05-10T09:09:19;10.10;;;2.80;;
27612;SDS011;15036;48.094;-1.690;2023-05-10T09:11:46;15.82;;;3.33;;
27612;SDS011;15036;48.094;-1.690;2023-05-10T09:14:12;12.20;;;3.08;;
27612;SDS011;15036;48.094;-1.690;2023-05-10T09:16:39;13.38;;;3.08;;
27612;SDS011;15036;48.094;-1.690;2023-05-10T09:19:04;13.95;;;3.35;;
27612;SDS011;15036;48.094;-1.690;2023-05-10T09:21:30;12.85;;;3.30;;
27612;SDS011;15036;48.094;-1.690;2023-05-10T09:23:56;13.55;;;3.10;;
27612;SDS011;15036;48.094;-1.690;2023-05-10T09:26:22;10.90;;;3.40;;
27612;SDS011;15036;48.094;-1.690;2023-05-10T09:28:55;12.55;;;3.35;;
27612;SDS011;15036;48.094;-1.690;2023-05-10T09:31:22;15.05;;;3.70;;
27612;SDS011;15036;48.094;-1.690;2023-05-10T09:33:49;18.35;;;4.65;;
27612;SDS011;15036;48.094;-1.690;2023-05-10T09:36:15;16.73;;;4.10;;
27612;SDS011;15036;48.094;-1.690;2023-05-10T09:41:19;13.77;;;4.88;;
27612;SDS011;15036;48.094;-1.690;2023-05-10T09:43:48;15.18;;;4.10;;
27612;SDS011;15036;48.094;-1.690;2023-05-10T09:46:17;11.40;;;4.03;;
27612;SDS011;15036;48.094;-1.690;2023-05-10T09:48:43;13.88;;;4.13;;
27612;SDS011;15036;48.094;-1.690;2023-05-10T09:51:10;13.65;;;4.40;;
27612;SDS011;15036;48.094;-1.690;2023-05-10T09:53:43;14.75;;;4.75;;
27612;SDS011;15036;48.094;-1.690;2023-05-10T09:56:08;18.30;;;4.95;;
27612;SDS011;15036;48.094;-1.690;2023-05-10T09:58:35;23.50;;;5.60;;
27612;SDS011;15036;48.094;-1.690;2023-05-10T10:01:03;21.00;;;5.57;;
27612;SDS011;15036;48.094;-1.690;2023-05-10T10:03:28;15.38;;;5.55;;
27612;SDS011;15036;48.094;-1.690;2023-05-10T10:05:55;17.83;;;6.10;;
27612;SDS011;15036;48.094;-1.690;2023-05-10T10:08:21;12.27;;;4.43;;
27612;SDS011;15036;48.094;-1.690;2023-05-10T10:10:46;12.13;;;4.20;;
27612;SDS011;15036;48.094;-1.690;2023-05-10T10:13:12;18.17;;;10.60;;
27612;SDS011;15036;48.094;-1.690;2023-05-10T10:15:37;11.10;;;5.20;;
27612;SDS011;15036;48.094;-1.690;2023-05-10T10:18:04;14.55;;;5.53;;
27612;SDS011;15036;48.094;-1.690;2023-05-10T10:20:30;16.27;;;7.78;;
27612;SDS011;15036;48.094;-1.690;2023-05-10T10:22:56;16.48;;;4.75;;
27612;SDS011;15036;48.094;-1.690;2023-05-10T10:25:21;14.88;;;4.25;;
27612;SDS011;15036;48.094;-1.690;2023-05-10T10:35:54;15.48;;;6.68;;
27612;SDS011;15036;48.094;-1.690;2023-05-10T10:38:22;16.85;;;5.78;;
27612;SDS011;15036;48.094;-1.690;2023-05-10T10:40:56;10.82;;;2.83;;
27612;SDS011;15036;48.094;-1.690;2023-05-10T10:43:28;9.82;;;3.35;;
27612;SDS011;15036;48.094;-1.690;2023-05-10T10:48:38;12.52;;;3.88;;
27612;SDS011;15036;48.094;-1.690;2023-05-10T10:51:04;14.20;;;5.15;;
27612;SDS011;15036;48.094;-1.690;2023-05-10T10:53:29;12.48;;;3.63;;
27612;SDS011;15036;48.094;-1.690;2023-05-10T10:56:05;11.10;;;3.35;;
27612;SDS011;15036;48.094;-1.690;2023-05-10T10:58:35;14.30;;;3.85;;
27612;SDS011;15036;48.094;-1.690;2023-05-10T11:01:09;11.57;;;3.53;;
27612;SDS011;15036;48.094;-1.690;2023-05-10T11:03:36;11.30;;;3.60;;
27612;SDS011;15036;48.094;-1.690;2023-05-10T11:06:02;9.05;;;3.30;;
27612;SDS011;15036;48.094;-1.690;2023-05-10T11:08:28;10.55;;;4.60;;
27612;SDS011;15036;48.094;-1.690;2023-05-10T11:13:38;9.68;;;2.65;;
27612;SDS011;15036;48.094;-1.690;2023-05-10T11:16:12;8.65;;;2.50;;
27612;SDS011;15036;48.094;-1.690;2023-05-10T11:18:52;7.43;;;2.65;;
27612;SDS011;15036;48.094;-1.690;2023-05-10T11:21:31;9.13;;;2.85;;
27612;SDS011;15036;48.094;-1.690;2023-05-10T11:23:58;8.18;;;2.80;;
27612;SDS011;15036;48.094;-1.690;2023-05-10T11:26:24;9.48;;;2.85;;
27612;SDS011;15036;48.094;-1.690;2023-05-10T11:28:52;9.32;;;2.40;;
27612;SDS011;15036;48.094;-1.690;2023-05-10T11:31:22;8.52;;;3.38;;
27612;SDS011;15036;48.094;-1.690;2023-05-10T11:33:51;7.35;;;2.10;;
27612;SDS011;15036;48.094;-1.690;2023-05-10T11:36:18;4.18;;;1.48;;
27612;SDS011;15036;48.094;-1.690;2023-05-10T11:38:48;4.95;;;1.40;;
27612;SDS011;15036;48.094;-1.690;2023-05-10T11:41:14;3.40;;;1.40;;
27612;SDS011;15036;48.094;-1.690;2023-05-10T11:43:41;3.65;;;1.33;;
27612;SDS011;15036;48.094;-1.690;2023-05-10T11:46:08;3.53;;;1.10;;
27612;SDS011;15036;48.094;-1.690;2023-05-10T11:48:36;3.30;;;1.50;;
27612;SDS011;15036;48.094;-1.690;2023-05-10T11:51:03;5.60;;;2.28;;
27612;SDS011;15036;48.094;-1.690;2023-05-10T11:53:32;5.07;;;1.90;;
27612;SDS011;15036;48.094;-1.690;2023-05-10T11:58:30;7.88;;;3.30;;
27612;SDS011;15036;48.094;-1.690;2023-05-10T12:00:55;5.57;;;2.88;;
27612;SDS011;15036;48.094;-1.690;2023-05-10T12:03:21;6.05;;;2.60;;
27612;SDS011;15036;48.094;-1.690;2023-05-10T12:05:47;8.90;;;5.07;;
27612;SDS011;15036;48.094;-1.690;2023-05-10T12:08:13;9.73;;;3.40;;
27612;SDS011;15036;48.094;-1.690;2023-05-10T12:10:45;6.72;;;2.70;;
27612;SDS011;15036;48.094;-1.690;2023-05-10T12:13:11;4.90;;;2.30;;
27612;SDS011;15036;48.094;-1.690;2023-05-10T12:15:38;8.63;;;2.38;;
27612;SDS011;15036;48.094;-1.690;2023-05-10T12:18:03;6.53;;;2.50;;
27612;SDS011;15036;48.094;-1.690;2023-05-10T12:20:30;7.72;;;2.83;;
27612;SDS011;15036;48.094;-1.690;2023-05-10T12:22:56;8.30;;;3.08;;
27612;SDS011;15036;48.094;-1.690;2023-05-10T12:25:23;10.73;;;4.07;;
27612;SDS011;15036;48.094;-1.690;2023-05-10T12:27:54;9.48;;;3.00;;
27612;SDS011;15036;48.094;-1.690;2023-05-10T12:30:22;9.18;;;4.50;;
27612;SDS011;15036;48.094;-1.690;2023-05-10T12:32:52;14.52;;;3.78;;
27612;SDS011;15036;48.094;-1.690;2023-05-10T12:35:19;10.63;;;3.83;;
27612;SDS011;15036;48.094;-1.690;2023-05-10T12:37:47;9.68;;;3.80;;
27612;SDS011;15036;48.094;-1.690;2023-05-10T12:40:12;11.93;;;4.90;;
27612;SDS011;15036;48.094;-1.690;2023-05-10T12:42:39;13.73;;;4.50;;
27612;SDS011;15036;48.094;-1.690;2023-05-10T12:45:05;12.65;;;4.32;;
27612;SDS011;15036;48.094;-1.690;2023-05-10T12:47:31;10.23;;;4.13;;
27612;SDS011;15036;48.094;-1.690;2023-05-10T12:49:58;16.38;;;3.97;;
27612;SDS011;15036;48.094;-1.690;2023-05-10T12:52:24;13.35;;;7.13;;
27612;SDS011;15036;48.094;-1.690;2023-05-10T12:54:49;14.35;;;5.07;;
27612;SDS011;15036;48.094;-1.690;2023-05-10T12:57:15;14.02;;;5.32;;
27612;SDS011;15036;48.094;-1.690;2023-05-10T12:59:40;15.15;;;5.80;;
27612;SDS011;15036;48.094;-1.690;2023-05-10T13:02:06;17.55;;;6.30;;
27612;SDS011;15036;48.094;-1.690;2023-05-10T13:04:31;10.15;;;4.75;;
27612;SDS011;15036;48.094;-1.690;2023-05-10T13:06:57;11.60;;;3.90;;
27612;SDS011;15036;48.094;-1.690;2023-05-10T13:09:24;12.20;;;3.65;;
27612;SDS011;15036;48.094;-1.690;2023-05-10T13:11:50;8.43;;;3.00;;
27612;SDS011;15036;48.094;-1.690;2023-05-10T13:14:16;7.07;;;2.70;;
27612;SDS011;15036;48.094;-1.690;2023-05-10T13:16:41;7.72;;;2.67;;
27612;SDS011;15036;48.094;-1.690;2023-05-10T13:19:07;8.07;;;2.67;;
27612;SDS011;15036;48.094;-1.690;2023-05-10T13:21:32;7.65;;;2.90;;
27612;SDS011;15036;48.094;-1.690;2023-05-10T13:23:57;11.15;;;2.47;;
27612;SDS011;15036;48.094;-1.690;2023-05-10T13:26:23;7.43;;;2.58;;
27612;SDS011;15036;48.094;-1.690;2023-05-10T13:28:48;8.15;;;2.67;;
27612;SDS011;15036;48.094;-1.690;2023-05-10T13:31:16;8.23;;;2.70;;
27612;SDS011;15036;48.094;-1.690;2023-05-10T13:33:41;6.03;;;2.60;;
27612;SDS011;15036;48.094;-1.690;2023-05-10T13:36:06;6.90;;;2.53;;
27612;SDS011;15036;48.094;-1.690;2023-05-10T13:38:32;5.30;;;2.00;;
27612;SDS011;15036;48.094;-1.690;2023-05-10T13:40:57;7.28;;;2.47;;
27612;SDS011;15036;48.094;-1.690;2023-05-10T13:43:23;3.85;;;1.88;;
27612;SDS011;15036;48.094;-1.690;2023-05-10T13:45:48;5.57;;;1.90;;
27612;SDS011;15036;48.094;-1.690;2023-05-10T13:48:15;5.40;;;1.92;;
27612;SDS011;15036;48.094;-1.690;2023-05-10T13:50:41;7.28;;;1.85;;
27612;SDS011;15036;48.094;-1.690;2023-05-10T13:53:06;4.75;;;1.50;;
27612;SDS011;15036;48.094;-1.690;2023-05-10T13:55:31;7.38;;;1.73;;
27612;SDS011;15036;48.094;-1.690;2023-05-10T13:57:57;8.23;;;1.98;;
27612;SDS011;15036;48.094;-1.690;2023-05-10T14:00:22;6.93;;;1.85;;
27612;SDS011;15036;48.094;-1.690;2023-05-10T14:02:48;9.40;;;2.72;;
27612;SDS011;15036;48.094;-1.690;2023-05-10T14:05:13;6.22;;;2.22;;
27612;SDS011;15036;48.094;-1.690;2023-05-10T14:07:39;6.97;;;2.08;;
27612;SDS011;15036;48.094;-1.690;2023-05-10T14:10:04;10.15;;;2.70;;
27612;SDS011;15036;48.094;-1.690;2023-05-10T14:12:30;8.80;;;2.60;;
27612;SDS011;15036;48.094;-1.690;2023-05-10T14:14:55;7.40;;;2.83;;
27612;SDS011;15036;48.094;-1.690;2023-05-10T14:17:21;6.45;;;2.35;;
27612;SDS011;15036;48.094;-1.690;2023-05-10T14:19:47;11.30;;;3.25;;
27612;SDS011;15036;48.094;-1.690;2023-05-10T14:22:12;7.25;;;2.53;;
27612;SDS011;15036;48.094;-1.690;2023-05-10T14:24:37;8.45;;;2.67;;
27612;SDS011;15036;48.094;-1.690;2023-05-10T14:27:03;9.93;;;2.55;;
27612;SDS011;15036;48.094;-1.690;2023-05-10T14:29:28;5.07;;;1.98;;
27612;SDS011;15036;48.094;-1.690;2023-05-10T14:31:53;7.45;;;2.17;;
27612;SDS011;15036;48.094;-1.690;2023-05-10T14:34:19;9.30;;;2.25;;
27612;SDS011;15036;48.094;-1.690;2023-05-10T14:36:45;11.45;;;2.15;;
27612;SDS011;15036;48.094;-1.690;2023-05-10T14:39:10;9.75;;;1.98;;
27612;SDS011;15036;48.094;-1.690;2023-05-10T14:41:37;7.32;;;2.42;;
27612;SDS011;15036;48.094;-1.690;2023-05-10T14:44:04;7.40;;;2.00;;
27612;SDS011;15036;48.094;-1.690;2023-05-10T14:46:29;8.38;;;2.22;;
27612;SDS011;15036;48.094;-1.690;2023-05-10T14:48:55;9.95;;;2.28;;
27612;SDS011;15036;48.094;-1.690;2023-05-10T14:51:20;11.95;;;2.72;;
27612;SDS011;15036;48.094;-1.690;2023-05-10T14:53:47;9.20;;;2.88;;
27612;SDS011;15036;48.094;-1.690;2023-05-10T14:56:14;6.95;;;2.28;;
27612;SDS011;15036;48.094;-1.690;2023-05-10T14:58:39;10.10;;;2.90;;
27612;SDS011;15036;48.094;-1.690;2023-05-10T15:01:05;9.02;;;3.05;;
27612;SDS011;15036;48.094;-1.690;2023-05-10T15:03:30;7.88;;;3.13;;
27612;SDS011;15036;48.094;-1.690;2023-05-10T15:05:56;7.95;;;2.70;;